PWSweather.com
Personal Weather Stations
Station Observations
S56IPS
Mostec 12, MostecSI 8257

Mostec 12MostecSI 8257

Lat: 45.899181, Lon: 15.628339

Elevation: 143

Station Type: WX-2008

Latest ConditionsUpdated 5:55:02 PM GMT+01:01 Thursday, Jul 24, 2014
Currently Today's Max Today's Min Today's Average
Temperature 79.5°F26.4°C 91.4°F33.0°C 59.0°F15.0°C 76.5°F24.7°C
Dew Point 67.2°F19.6°C 72.2°F22.3°C 58.7°F14.8°C 64.9°F18.3°C
Winds Calm Calm 3.8 mph SE6.1 kmh SE - 0.7 mph 1.1 kmh
Wind Gusts 2.2 mph3.5 kmh 8.3 mph13.4 kmh - -
Humidity 66% 99% 41% 71%
Pressure 29.78 in1008.5 mb 29.82 in1009.8 mb 29.77 in1008.1 mb -
Hour Temp Dew Point Humidity Winds Wind Gusts Pressure Precip Precip Rate Daily Precip Total
05:55 PM 79.5°F26.4°C 67.2°F19.6°C 66% Calm Calm 2.2 mph3.5 kmh 29.78 in1008.5 mb 0.00 in0.0 mm 0.00 in/hr0.0 mm/hr 0.00 in0.0 mm
05:50 PM 79.3°F26.3°C 67.0°F19.4°C 66% Calm Calm 3.1 mph5.0 kmh 29.77 in1008.1 mb 0.00 in0.0 mm 0.00 in/hr0.0 mm/hr 0.00 in0.0 mm
05:45 PM 79.2°F26.2°C 66.9°F19.4°C 66% Calm Calm 3.1 mph5.0 kmh 29.77 in1008.1 mb 0.00 in0.0 mm 0.00 in/hr0.0 mm/hr 0.00 in0.0 mm
05:40 PM 79.3°F26.3°C 67.0°F19.4°C 66% 1.6 mph SE2.6 kmh SE 3.8 mph6.1 kmh 29.78 in1008.5 mb 0.00 in0.0 mm 0.00 in/hr0.0 mm/hr 0.00 in0.0 mm
05:35 PM 79.5°F26.4°C 67.2°F19.6°C 66% 0.7 mph ESE1.1 kmh ESE 3.8 mph6.1 kmh 29.78 in1008.5 mb 0.00 in0.0 mm 0.00 in/hr0.0 mm/hr 0.00 in0.0 mm
05:30 PM 79.5°F26.4°C 67.2°F19.6°C 66% 0.7 mph ESE1.1 kmh ESE 3.1 mph5.0 kmh 29.77 in1008.1 mb 0.00 in0.0 mm 0.00 in/hr0.0 mm/hr 0.00 in0.0 mm
05:25 PM 79.7°F26.5°C 66.9°F19.4°C 65% 0.7 mph SE1.1 kmh SE 3.1 mph5.0 kmh 29.77 in1008.1 mb 0.00 in0.0 mm 0.00 in/hr0.0 mm/hr 0.00 in0.0 mm
05:20 PM 79.9°F26.6°C 66.7°F19.3°C 64% Calm Calm 3.1 mph5.0 kmh 29.77 in1008.1 mb 0.00 in0.0 mm 0.00 in/hr0.0 mm/hr 0.00 in0.0 mm
05:15 PM 80.1°F26.7°C 66.8°F19.3°C 64% 0.7 mph SE1.1 kmh SE 3.8 mph6.1 kmh 29.77 in1008.1 mb 0.00 in0.0 mm 0.00 in/hr0.0 mm/hr 0.00 in0.0 mm
05:10 PM 80.2°F26.8°C 67.0°F19.4°C 64% Calm Calm 3.8 mph6.1 kmh 29.77 in1008.1 mb 0.00 in0.0 mm 0.00 in/hr0.0 mm/hr 0.00 in0.0 mm
05:05 PM 80.8°F27.1°C 67.1°F19.5°C 63% 2.2 mph SE3.5 kmh SE 3.8 mph6.1 kmh 29.77 in1008.1 mb 0.00 in0.0 mm 0.00 in/hr0.0 mm/hr 0.00 in0.0 mm
05:00 PM 80.8°F27.1°C 67.1°F19.5°C 63% 2.2 mph SSE3.5 kmh SSE 3.8 mph6.1 kmh 29.77 in1008.1 mb 0.00 in0.0 mm 0.00 in/hr0.0 mm/hr 0.00 in0.0 mm
04:55 PM 81.1°F27.3°C 66.9°F19.4°C 62% 1.6 mph SSE2.6 kmh SSE 3.8 mph6.1 kmh 29.77 in1008.1 mb 0.00 in0.0 mm 0.00 in/hr0.0 mm/hr 0.00 in0.0 mm
04:50 PM 81.5°F27.5°C 66.8°F19.3°C 61% 0.7 mph SE1.1 kmh SE 4.5 mph7.2 kmh 29.77 in1008.1 mb 0.00 in0.0 mm 0.00 in/hr0.0 mm/hr 0.00 in0.0 mm
04:45 PM 82.0°F27.8°C 67.3°F19.6°C 61% 0.7 mph SE1.1 kmh SE 4.5 mph7.2 kmh 29.77 in1008.1 mb 0.00 in0.0 mm 0.00 in/hr0.0 mm/hr 0.00 in0.0 mm
04:40 PM 82.4°F28.0°C 67.7°F19.8°C 61% Calm Calm 3.8 mph6.1 kmh 29.77 in1008.1 mb 0.00 in0.0 mm 0.00 in/hr0.0 mm/hr 0.00 in0.0 mm
04:35 PM 82.4°F28.0°C 67.7°F19.8°C 61% Calm Calm 3.8 mph6.1 kmh 29.77 in1008.1 mb 0.00 in0.0 mm 0.00 in/hr0.0 mm/hr 0.00 in0.0 mm
04:30 PM 82.4°F28.0°C 67.7°F19.8°C 61% Calm Calm 3.8 mph6.1 kmh 29.77 in1008.1 mb 0.00 in0.0 mm 0.00 in/hr0.0 mm/hr 0.00 in0.0 mm
04:25 PM 82.6°F28.1°C 67.3°F19.6°C 60% 0.7 mph SSE1.1 kmh SSE 5.4 mph8.7 kmh 29.77 in1008.1 mb 0.00 in0.0 mm 0.00 in/hr0.0 mm/hr 0.00 in0.0 mm
04:20 PM 83.1°F28.4°C 67.8°F19.9°C 60% 1.6 mph SSE2.6 kmh SSE 5.4 mph8.7 kmh 29.77 in1008.1 mb 0.00 in0.0 mm 0.00 in/hr0.0 mm/hr 0.00 in0.0 mm
04:15 PM 83.5°F28.6°C 67.2°F19.6°C 58% 0.7 mph SE1.1 kmh SE 3.8 mph6.1 kmh 29.77 in1008.1 mb 0.00 in0.0 mm 0.00 in/hr0.0 mm/hr 0.00 in0.0 mm
04:10 PM 83.8°F28.8°C 67.5°F19.7°C 58% Calm Calm 3.1 mph5.0 kmh 29.78 in1008.5 mb 0.00 in0.0 mm 0.00 in/hr0.0 mm/hr 0.00 in0.0 mm
04:05 PM 84.2°F29.0°C 66.9°F19.4°C 56% 1.6 mph SE2.6 kmh SE 4.5 mph7.2 kmh 29.77 in1008.1 mb 0.00 in0.0 mm 0.00 in/hr0.0 mm/hr 0.00 in0.0 mm
04:00 PM 84.2°F29.0°C 66.9°F19.4°C 56% 1.6 mph SSE2.6 kmh SSE 5.4 mph8.7 kmh 29.77 in1008.1 mb 0.00 in0.0 mm 0.00 in/hr0.0 mm/hr 0.00 in0.0 mm
03:55 PM 84.7°F29.3°C 67.4°F19.7°C 56% 1.6 mph SSE2.6 kmh SSE 5.4 mph8.7 kmh 29.78 in1008.5 mb 0.00 in0.0 mm 0.00 in/hr0.0 mm/hr 0.00 in0.0 mm
03:50 PM 85.1°F29.5°C 67.7°F19.8°C 56% 2.2 mph SE3.5 kmh SE 5.4 mph8.7 kmh 29.78 in1008.5 mb 0.00 in0.0 mm 0.00 in/hr0.0 mm/hr 0.00 in0.0 mm
03:45 PM 85.3°F29.6°C 67.9°F19.9°C 56% 1.6 mph SE2.6 kmh SE 5.4 mph8.7 kmh 29.77 in1008.1 mb 0.00 in0.0 mm 0.00 in/hr0.0 mm/hr 0.00 in0.0 mm
03:40 PM 85.1°F29.5°C 67.7°F19.8°C 56% 1.6 mph SSE2.6 kmh SSE 5.4 mph8.7 kmh 29.77 in1008.1 mb 0.00 in0.0 mm 0.00 in/hr0.0 mm/hr 0.00 in0.0 mm
03:35 PM 85.1°F29.5°C 67.7°F19.8°C 56% 1.6 mph S2.6 kmh S 5.4 mph8.7 kmh 29.78 in1008.5 mb 0.00 in0.0 mm 0.00 in/hr0.0 mm/hr 0.00 in0.0 mm
03:30 PM 85.6°F29.8°C 67.7°F19.8°C 55% 1.6 mph SSE2.6 kmh SSE 5.4 mph8.7 kmh 29.77 in1008.1 mb 0.00 in0.0 mm 0.00 in/hr0.0 mm/hr 0.00 in0.0 mm
03:25 PM 86.2°F30.1°C 67.1°F19.5°C 53% 1.6 mph SSE2.6 kmh SSE 8.3 mph13.4 kmh 29.78 in1008.5 mb 0.00 in0.0 mm 0.00 in/hr0.0 mm/hr 0.00 in0.0 mm
03:20 PM 87.1°F30.6°C 66.8°F19.3°C 51% 2.2 mph SE3.5 kmh SE 8.3 mph13.4 kmh 29.78 in1008.5 mb 0.00 in0.0 mm 0.00 in/hr0.0 mm/hr 0.00 in0.0 mm
03:15 PM 87.4°F30.8°C 67.7°F19.8°C 52% 1.6 mph SE2.6 kmh SE 6.9 mph11.1 kmh 29.78 in1008.5 mb 0.00 in0.0 mm 0.00 in/hr0.0 mm/hr 0.00 in0.0 mm
03:10 PM 87.3°F30.7°C 67.0°F19.4°C 51% 2.2 mph SE3.5 kmh SE 6.9 mph11.1 kmh 29.78 in1008.5 mb 0.00 in0.0 mm 0.00 in/hr0.0 mm/hr 0.00 in0.0 mm
03:05 PM 88.7°F31.5°C 68.3°F20.2°C 51% 1.6 mph SE2.6 kmh SE 6.9 mph11.1 kmh 29.78 in1008.5 mb 0.00 in0.0 mm 0.00 in/hr0.0 mm/hr 0.00 in0.0 mm
03:00 PM 88.7°F31.5°C 68.3°F20.2°C 51% 1.6 mph SSE2.6 kmh SSE 6.9 mph11.1 kmh 29.78 in1008.5 mb 0.00 in0.0 mm 0.00 in/hr0.0 mm/hr 0.00 in0.0 mm
02:55 PM 88.7°F31.5°C 68.3°F20.2°C 51% 0.7 mph SE1.1 kmh SE 6.0 mph9.7 kmh 29.78 in1008.5 mb 0.00 in0.0 mm 0.00 in/hr0.0 mm/hr 0.00 in0.0 mm
02:50 PM 88.2°F31.2°C 67.8°F19.9°C 51% 0.7 mph SSE1.1 kmh SSE 6.9 mph11.1 kmh 29.78 in1008.5 mb 0.00 in0.0 mm 0.00 in/hr0.0 mm/hr 0.00 in0.0 mm
02:45 PM 88.2°F31.2°C 67.8°F19.9°C 51% 1.6 mph SE2.6 kmh SE 7.6 mph12.2 kmh 29.78 in1008.5 mb 0.00 in0.0 mm 0.00 in/hr0.0 mm/hr 0.00 in0.0 mm
02:40 PM 88.3°F31.3°C 68.0°F20.0°C 51% 2.2 mph SE3.5 kmh SE 7.6 mph12.2 kmh 29.78 in1008.5 mb 0.00 in0.0 mm 0.00 in/hr0.0 mm/hr 0.00 in0.0 mm
02:35 PM 88.3°F31.3°C 67.4°F19.7°C 50% 2.2 mph SE3.5 kmh SE 6.0 mph9.7 kmh 29.78 in1008.5 mb 0.00 in0.0 mm 0.00 in/hr0.0 mm/hr 0.00 in0.0 mm
02:30 PM 88.3°F31.3°C 68.0°F20.0°C 51% 2.2 mph SE3.5 kmh SE 6.0 mph9.7 kmh 29.78 in1008.5 mb 0.00 in0.0 mm 0.00 in/hr0.0 mm/hr 0.00 in0.0 mm
02:25 PM 88.2°F31.2°C 67.8°F19.9°C 51% 2.2 mph SE3.5 kmh SE 8.3 mph13.4 kmh 29.78 in1008.5 mb 0.00 in0.0 mm 0.00 in/hr0.0 mm/hr 0.00 in0.0 mm
02:20 PM 88.2°F31.2°C 67.2°F19.6°C 50% 2.2 mph SE3.5 kmh SE 8.3 mph13.4 kmh 29.78 in1008.5 mb 0.00 in0.0 mm 0.00 in/hr0.0 mm/hr 0.00 in0.0 mm
02:15 PM 88.0°F31.1°C 67.1°F19.5°C 50% 1.6 mph SE2.6 kmh SE 8.3 mph13.4 kmh 29.79 in1008.8 mb 0.00 in0.0 mm 0.00 in/hr0.0 mm/hr 0.00 in0.0 mm
02:10 PM 88.0°F31.1°C 66.5°F19.2°C 49% 2.2 mph ESE3.5 kmh ESE 6.9 mph11.1 kmh 29.79 in1008.8 mb 0.00 in0.0 mm 0.00 in/hr0.0 mm/hr 0.00 in0.0 mm
02:05 PM 88.3°F31.3°C 68.0°F20.0°C 51% 1.6 mph ESE2.6 kmh ESE 8.3 mph13.4 kmh 29.79 in1008.8 mb 0.00 in0.0 mm 0.00 in/hr0.0 mm/hr 0.00 in0.0 mm
02:00 PM 88.3°F31.3°C 68.0°F20.0°C 51% 1.6 mph SSE2.6 kmh SSE 8.3 mph13.4 kmh 29.79 in1008.8 mb 0.00 in0.0 mm 0.00 in/hr0.0 mm/hr 0.00 in0.0 mm
01:55 PM 88.2°F31.2°C 66.7°F19.3°C 49% 2.2 mph SE3.5 kmh SE 7.6 mph12.2 kmh 29.79 in1008.8 mb 0.00 in0.0 mm 0.00 in/hr0.0 mm/hr 0.00 in0.0 mm
01:50 PM 88.7°F31.5°C 66.6°F19.2°C 48% 1.6 mph ESE2.6 kmh ESE 6.0 mph9.7 kmh 29.79 in1008.8 mb 0.00 in0.0 mm 0.00 in/hr0.0 mm/hr 0.00 in0.0 mm
01:45 PM 88.7°F31.5°C 67.1°F19.5°C 49% 0.7 mph SE1.1 kmh SE 5.4 mph8.7 kmh 29.79 in1008.8 mb 0.00 in0.0 mm 0.00 in/hr0.0 mm/hr 0.00 in0.0 mm
01:40 PM 88.5°F31.4°C 66.4°F19.1°C 48% 3.1 mph SE5.0 kmh SE 6.0 mph9.7 kmh 29.79 in1008.8 mb 0.00 in0.0 mm 0.00 in/hr0.0 mm/hr 0.00 in0.0 mm
01:35 PM 88.3°F31.3°C 67.4°F19.7°C 50% 0.7 mph SE1.1 kmh SE 7.6 mph12.2 kmh 29.79 in1008.8 mb 0.00 in0.0 mm 0.00 in/hr0.0 mm/hr 0.00 in0.0 mm
01:30 PM 87.8°F31.0°C 66.9°F19.4°C 50% 1.6 mph SE2.6 kmh SE 7.6 mph12.2 kmh 29.79 in1008.8 mb 0.00 in0.0 mm 0.00 in/hr0.0 mm/hr 0.00 in0.0 mm
01:25 PM 87.8°F31.0°C 65.7°F18.7°C 48% 1.6 mph SE2.6 kmh SE 6.0 mph9.7 kmh 29.79 in1008.8 mb 0.00 in0.0 mm 0.00 in/hr0.0 mm/hr 0.00 in0.0 mm
01:20 PM 87.6°F30.9°C 66.2°F19.0°C 49% 1.6 mph SE2.6 kmh SE 5.4 mph8.7 kmh 29.79 in1008.8 mb 0.00 in0.0 mm 0.00 in/hr0.0 mm/hr 0.00 in0.0 mm
01:15 PM 86.9°F30.5°C 64.3°F17.9°C 47% 0.7 mph SE1.1 kmh SE 5.4 mph8.7 kmh 29.79 in1008.8 mb 0.00 in0.0 mm 0.00 in/hr0.0 mm/hr 0.00 in0.0 mm
01:10 PM 87.3°F30.7°C 63.4°F17.4°C 45% 2.2 mph SE3.5 kmh SE 5.4 mph8.7 kmh 29.80 in1009.1 mb 0.00 in0.0 mm 0.00 in/hr0.0 mm/hr 0.00 in0.0 mm
01:05 PM 88.7°F31.5°C 62.7°F17.1°C 42% 1.6 mph SE2.6 kmh SE 5.4 mph8.7 kmh 29.79 in1008.8 mb 0.00 in0.0 mm 0.00 in/hr0.0 mm/hr 0.00 in0.0 mm
01:00 PM 88.7°F31.5°C 62.7°F17.1°C 42% 1.6 mph SE2.6 kmh SE 5.4 mph8.7 kmh 29.80 in1009.1 mb 0.00 in0.0 mm 0.00 in/hr0.0 mm/hr 0.00 in0.0 mm
12:55 PM 89.1°F31.7°C 63.0°F17.2°C 42% 2.2 mph SE3.5 kmh SE 5.4 mph8.7 kmh 29.79 in1008.8 mb 0.00 in0.0 mm 0.00 in/hr0.0 mm/hr 0.00 in0.0 mm
12:50 PM 89.4°F31.9°C 62.7°F17.1°C 41% 0.7 mph SE1.1 kmh SE 3.8 mph6.1 kmh 29.79 in1008.8 mb 0.00 in0.0 mm 0.00 in/hr0.0 mm/hr 0.00 in0.0 mm
12:45 PM 89.6°F32.0°C 64.2°F17.9°C 43% 0.7 mph SE1.1 kmh SE 3.8 mph6.1 kmh 29.80 in1009.1 mb 0.00 in0.0 mm 0.00 in/hr0.0 mm/hr 0.00 in0.0 mm
12:40 PM 89.4°F31.9°C 64.0°F17.8°C 43% 1.6 mph SE2.6 kmh SE 4.5 mph7.2 kmh 29.80 in1009.1 mb 0.00 in0.0 mm 0.00 in/hr0.0 mm/hr 0.00 in0.0 mm
12:35 PM 89.4°F31.9°C 63.4°F17.4°C 42% 1.6 mph E2.6 kmh E 4.5 mph7.2 kmh 29.80 in1009.1 mb 0.00 in0.0 mm 0.00 in/hr0.0 mm/hr 0.00 in0.0 mm
12:30 PM 89.2°F31.8°C 63.2°F17.3°C 42% 1.6 mph ESE2.6 kmh ESE 6.0 mph9.7 kmh 29.80 in1009.1 mb 0.00 in0.0 mm 0.00 in/hr0.0 mm/hr 0.00 in0.0 mm
12:25 PM 90.1°F32.3°C 64.0°F17.8°C 42% 2.2 mph SE3.5 kmh SE 6.0 mph9.7 kmh 29.80 in1009.1 mb 0.00 in0.0 mm 0.00 in/hr0.0 mm/hr 0.00 in0.0 mm
12:20 PM 91.4°F33.0°C 66.5°F19.2°C 44% 1.6 mph SE2.6 kmh SE 5.4 mph8.7 kmh 29.80 in1009.1 mb 0.00 in0.0 mm 0.00 in/hr0.0 mm/hr 0.00 in0.0 mm
12:15 PM 90.9°F32.7°C 65.3°F18.5°C 43% 0.7 mph SSE1.1 kmh SSE 5.4 mph8.7 kmh 29.80 in1009.1 mb 0.00 in0.0 mm 0.00 in/hr0.0 mm/hr 0.00 in0.0 mm
12:10 PM 90.9°F32.7°C 66.0°F18.9°C 44% 3.1 mph S5.0 kmh S 5.4 mph8.7 kmh 29.81 in1009.5 mb 0.00 in0.0 mm 0.00 in/hr0.0 mm/hr 0.00 in0.0 mm
12:05 PM 90.0°F32.2°C 65.8°F18.8°C 45% 0.7 mph SSE1.1 kmh SSE 6.9 mph11.1 kmh 29.80 in1009.1 mb 0.00 in0.0 mm 0.00 in/hr0.0 mm/hr 0.00 in0.0 mm
12:00 PM 90.0°F32.2°C 65.8°F18.8°C 45% 0.7 mph SE1.1 kmh SE 6.9 mph11.1 kmh 29.80 in1009.1 mb 0.00 in0.0 mm 0.00 in/hr0.0 mm/hr 0.00 in0.0 mm
11:55 AM 90.9°F32.7°C 67.3°F19.6°C 46% 2.2 mph S3.5 kmh S 5.4 mph8.7 kmh 29.80 in1009.1 mb 0.00 in0.0 mm 0.00 in/hr0.0 mm/hr 0.00 in0.0 mm
11:50 AM 90.9°F32.7°C 66.6°F19.2°C 45% Calm Calm 6.0 mph9.7 kmh 29.80 in1009.1 mb 0.00 in0.0 mm 0.00 in/hr0.0 mm/hr 0.00 in0.0 mm
11:45 AM 89.2°F31.8°C 66.4°F19.1°C 47% Calm Calm 6.0 mph9.7 kmh 29.80 in1009.1 mb 0.00 in0.0 mm 0.00 in/hr0.0 mm/hr 0.00 in0.0 mm
11:40 AM 88.5°F31.4°C 65.2°F18.4°C 46% 0.7 mph SE1.1 kmh SE 5.4 mph8.7 kmh 29.80 in1009.1 mb 0.00 in0.0 mm 0.00 in/hr0.0 mm/hr 0.00 in0.0 mm
11:35 AM 88.7°F31.5°C 64.7°F18.2°C 45% 2.2 mph SE3.5 kmh SE 5.4 mph8.7 kmh 29.80 in1009.1 mb 0.00 in0.0 mm 0.00 in/hr0.0 mm/hr 0.00 in0.0 mm
11:30 AM 89.1°F31.7°C 65.0°F18.3°C 45% 1.6 mph SE2.6 kmh SE 4.5 mph7.2 kmh 29.80 in1009.1 mb 0.00 in0.0 mm 0.00 in/hr0.0 mm/hr 0.00 in0.0 mm
11:25 AM 88.5°F31.4°C 66.4°F19.1°C 48% Calm Calm 4.5 mph7.2 kmh 29.80 in1009.1 mb 0.00 in0.0 mm 0.00 in/hr0.0 mm/hr 0.00 in0.0 mm
11:20 AM 88.5°F31.4°C 65.8°F18.8°C 47% 1.6 mph SE2.6 kmh SE 4.5 mph7.2 kmh 29.81 in1009.5 mb 0.00 in0.0 mm 0.00 in/hr0.0 mm/hr 0.00 in0.0 mm
11:15 AM 88.0°F31.1°C 66.5°F19.2°C 49% 0.7 mph SE1.1 kmh SE 5.4 mph8.7 kmh 29.81 in1009.5 mb 0.00 in0.0 mm 0.00 in/hr0.0 mm/hr 0.00 in0.0 mm
11:10 AM 87.3°F30.7°C 65.2°F18.4°C 48% 1.6 mph S2.6 kmh S 5.4 mph8.7 kmh 29.81 in1009.5 mb 0.00 in0.0 mm 0.00 in/hr0.0 mm/hr 0.00 in0.0 mm
11:05 AM 88.0°F31.1°C 65.3°F18.5°C 47% 3.1 mph S5.0 kmh S 5.4 mph8.7 kmh 29.81 in1009.5 mb 0.00 in0.0 mm 0.00 in/hr0.0 mm/hr 0.00 in0.0 mm
11:00 AM 88.0°F31.1°C 65.3°F18.5°C 47% 3.1 mph SSE5.0 kmh SSE 5.4 mph8.7 kmh 29.81 in1009.5 mb 0.00 in0.0 mm 0.00 in/hr0.0 mm/hr 0.00 in0.0 mm
10:55 AM 87.6°F30.9°C 65.6°F18.7°C 48% 2.2 mph SE3.5 kmh SE 4.5 mph7.2 kmh 29.80 in1009.1 mb 0.00 in0.0 mm 0.00 in/hr0.0 mm/hr 0.00 in0.0 mm
10:50 AM 87.4°F30.8°C 64.2°F17.9°C 46% 0.7 mph SE1.1 kmh SE 6.0 mph9.7 kmh 29.80 in1009.1 mb 0.00 in0.0 mm 0.00 in/hr0.0 mm/hr 0.00 in0.0 mm
10:45 AM 87.4°F30.8°C 64.2°F17.9°C 46% 2.2 mph SE3.5 kmh SE 6.9 mph11.1 kmh 29.80 in1009.1 mb 0.00 in0.0 mm 0.00 in/hr0.0 mm/hr 0.00 in0.0 mm
10:40 AM 87.6°F30.9°C 65.6°F18.7°C 48% 2.2 mph SE3.5 kmh SE 6.9 mph11.1 kmh 29.81 in1009.5 mb 0.00 in0.0 mm 0.00 in/hr0.0 mm/hr 0.00 in0.0 mm
10:35 AM 88.0°F31.1°C 66.5°F19.2°C 49% 1.6 mph SE2.6 kmh SE 5.4 mph8.7 kmh 29.81 in1009.5 mb 0.00 in0.0 mm 0.00 in/hr0.0 mm/hr 0.00 in0.0 mm
10:30 AM 88.2°F31.2°C 66.7°F19.3°C 49% 2.2 mph SSE3.5 kmh SSE 6.0 mph9.7 kmh 29.81 in1009.5 mb 0.00 in0.0 mm 0.00 in/hr0.0 mm/hr 0.00 in0.0 mm
10:25 AM 87.4°F30.8°C 66.0°F18.9°C 49% 1.6 mph SSE2.6 kmh SSE 6.0 mph9.7 kmh 29.81 in1009.5 mb 0.00 in0.0 mm 0.00 in/hr0.0 mm/hr 0.00 in0.0 mm
10:20 AM 87.1°F30.6°C 64.5°F18.1°C 47% 0.7 mph SE1.1 kmh SE 6.0 mph9.7 kmh 29.81 in1009.5 mb 0.00 in0.0 mm 0.00 in/hr0.0 mm/hr 0.00 in0.0 mm
10:15 AM 86.4°F30.2°C 64.4°F18.0°C 48% 2.2 mph SE3.5 kmh SE 6.9 mph11.1 kmh 29.81 in1009.5 mb 0.00 in0.0 mm 0.00 in/hr0.0 mm/hr 0.00 in0.0 mm
10:10 AM 86.9°F30.5°C 64.9°F18.3°C 48% 2.2 mph SE3.5 kmh SE 6.9 mph11.1 kmh 29.81 in1009.5 mb 0.00 in0.0 mm 0.00 in/hr0.0 mm/hr 0.00 in0.0 mm
10:05 AM 87.1°F30.6°C 65.1°F18.4°C 48% 3.8 mph SE6.1 kmh SE 6.0 mph9.7 kmh 29.81 in1009.5 mb 0.00 in0.0 mm 0.00 in/hr0.0 mm/hr 0.00 in0.0 mm
10:00 AM 87.1°F30.6°C 65.1°F18.4°C 48% 3.8 mph SE6.1 kmh SE 6.0 mph9.7 kmh 29.81 in1009.5 mb 0.00 in0.0 mm 0.00 in/hr0.0 mm/hr 0.00 in0.0 mm
09:55 AM 87.1°F30.6°C 65.1°F18.4°C 48% 1.6 mph SE2.6 kmh SE 5.4 mph8.7 kmh 29.81 in1009.5 mb 0.00 in0.0 mm 0.00 in/hr0.0 mm/hr 0.00 in0.0 mm
09:50 AM 88.0°F31.1°C 66.5°F19.2°C 49% 3.1 mph SE5.0 kmh SE 5.4 mph8.7 kmh 29.81 in1009.5 mb 0.00 in0.0 mm 0.00 in/hr0.0 mm/hr 0.00 in0.0 mm
09:45 AM 88.7°F31.5°C 66.6°F19.2°C 48% 1.6 mph SE2.6 kmh SE 3.8 mph6.1 kmh 29.81 in1009.5 mb 0.00 in0.0 mm 0.00 in/hr0.0 mm/hr 0.00 in0.0 mm
09:40 AM 89.4°F31.9°C 70.1°F21.2°C 53% Calm Calm 3.1 mph5.0 kmh 29.81 in1009.5 mb 0.00 in0.0 mm 0.00 in/hr0.0 mm/hr 0.00 in0.0 mm
09:35 AM 88.7°F31.5°C 68.9°F20.5°C 52% Calm Calm 3.1 mph5.0 kmh 29.81 in1009.5 mb 0.00 in0.0 mm 0.00 in/hr0.0 mm/hr 0.00 in0.0 mm
09:30 AM 88.3°F31.3°C 68.0°F20.0°C 51% Calm Calm 3.8 mph6.1 kmh 29.81 in1009.5 mb 0.00 in0.0 mm 0.00 in/hr0.0 mm/hr 0.00 in0.0 mm
09:25 AM 88.5°F31.4°C 68.7°F20.4°C 52% 0.7 mph S1.1 kmh S 3.8 mph6.1 kmh 29.81 in1009.5 mb 0.00 in0.0 mm 0.00 in/hr0.0 mm/hr 0.00 in0.0 mm
09:20 AM 87.8°F31.0°C 69.7°F20.9°C 55% Calm Calm 3.1 mph5.0 kmh 29.81 in1009.5 mb 0.00 in0.0 mm 0.00 in/hr0.0 mm/hr 0.00 in0.0 mm
09:15 AM 86.2°F30.1°C 69.2°F20.7°C 57% Calm Calm 3.1 mph5.0 kmh 29.81 in1009.5 mb 0.00 in0.0 mm 0.00 in/hr0.0 mm/hr 0.00 in0.0 mm
09:10 AM 86.2°F30.1°C 68.2°F20.1°C 55% 0.7 mph N1.1 kmh N 3.1 mph5.0 kmh 29.81 in1009.5 mb 0.00 in0.0 mm 0.00 in/hr0.0 mm/hr 0.00 in0.0 mm
09:05 AM 87.3°F30.7°C 70.7°F21.5°C 58% Calm Calm 1.6 mph2.6 kmh 29.81 in1009.5 mb 0.00 in0.0 mm 0.00 in/hr0.0 mm/hr 0.00 in0.0 mm
09:00 AM 87.3°F30.7°C 70.7°F21.5°C 58% Calm Calm 2.2 mph3.5 kmh 29.81 in1009.5 mb 0.00 in0.0 mm 0.00 in/hr0.0 mm/hr 0.00 in0.0 mm
08:55 AM 86.4°F30.2°C 69.4°F20.8°C 57% Calm Calm 2.2 mph3.5 kmh 29.81 in1009.5 mb 0.00 in0.0 mm 0.00 in/hr0.0 mm/hr 0.00 in0.0 mm
08:50 AM 86.2°F30.1°C 70.7°F21.5°C 60% Calm Calm 2.2 mph3.5 kmh 29.81 in1009.5 mb 0.00 in0.0 mm 0.00 in/hr0.0 mm/hr 0.00 in0.0 mm
08:45 AM 86.0°F30.0°C 69.6°F20.9°C 58% 0.7 mph W1.1 kmh W 2.2 mph3.5 kmh 29.81 in1009.5 mb 0.00 in0.0 mm 0.00 in/hr0.0 mm/hr 0.00 in0.0 mm
08:40 AM 86.2°F30.1°C 70.2°F21.2°C 59% Calm Calm 1.6 mph2.6 kmh 29.81 in1009.5 mb 0.00 in0.0 mm 0.00 in/hr0.0 mm/hr 0.00 in0.0 mm
08:35 AM 86.2°F30.1°C 71.2°F21.8°C 61% Calm Calm 2.2 mph3.5 kmh 29.81 in1009.5 mb 0.00 in0.0 mm 0.00 in/hr0.0 mm/hr 0.00 in0.0 mm
08:30 AM 86.7°F30.4°C 72.2°F22.3°C 62% Calm Calm 2.2 mph3.5 kmh 29.81 in1009.5 mb 0.00 in0.0 mm 0.00 in/hr0.0 mm/hr 0.00 in0.0 mm
08:25 AM 86.0°F30.0°C 71.5°F21.9°C 62% 0.7 mph SW1.1 kmh SW 2.2 mph3.5 kmh 29.81 in1009.5 mb 0.00 in0.0 mm 0.00 in/hr0.0 mm/hr 0.00 in0.0 mm
08:20 AM 84.2°F29.0°C 70.8°F21.6°C 64% Calm Calm 2.2 mph3.5 kmh 29.81 in1009.5 mb 0.00 in0.0 mm 0.00 in/hr0.0 mm/hr 0.00 in0.0 mm
08:15 AM 83.5°F28.6°C 69.1°F20.6°C 62% Calm Calm 3.1 mph5.0 kmh 29.81 in1009.5 mb 0.00 in0.0 mm 0.00 in/hr0.0 mm/hr 0.00 in0.0 mm
08:10 AM 83.8°F28.8°C 70.4°F21.3°C 64% Calm Calm 3.1 mph5.0 kmh 29.82 in1009.8 mb 0.00 in0.0 mm 0.00 in/hr0.0 mm/hr 0.00 in0.0 mm
08:05 AM 83.1°F28.4°C 70.2°F21.2°C 65% Calm Calm 2.2 mph3.5 kmh 29.82 in1009.8 mb 0.00 in0.0 mm 0.00 in/hr0.0 mm/hr 0.00 in0.0 mm
08:00 AM 83.1°F28.4°C 70.2°F21.2°C 65% Calm Calm 3.1 mph5.0 kmh 29.82 in1009.8 mb 0.00 in0.0 mm 0.00 in/hr0.0 mm/hr 0.00 in0.0 mm
07:55 AM 81.9°F27.7°C 70.3°F21.3°C 68% Calm Calm 3.1 mph5.0 kmh 29.81 in1009.5 mb 0.00 in0.0 mm 0.00 in/hr0.0 mm/hr 0.00 in0.0 mm
07:50 AM 81.3°F27.4°C 69.8°F21.0°C 68% Calm Calm 3.1 mph5.0 kmh 29.82 in1009.8 mb 0.00 in0.0 mm 0.00 in/hr0.0 mm/hr 0.00 in0.0 mm
07:45 AM 80.8°F27.1°C 69.7°F20.9°C 69% Calm Calm 3.1 mph5.0 kmh 29.82 in1009.8 mb 0.00 in0.0 mm 0.00 in/hr0.0 mm/hr 0.00 in0.0 mm
07:40 AM 81.3°F27.4°C 70.2°F21.2°C 69% Calm Calm 3.1 mph5.0 kmh 29.82 in1009.8 mb 0.00 in0.0 mm 0.00 in/hr0.0 mm/hr 0.00 in0.0 mm
07:35 AM 80.6°F27.0°C 70.0°F21.1°C 70% Calm Calm 3.1 mph5.0 kmh 29.81 in1009.5 mb 0.00 in0.0 mm 0.00 in/hr0.0 mm/hr 0.00 in0.0 mm
07:30 AM 80.6°F27.0°C 70.4°F21.3°C 71% Calm Calm 3.1 mph5.0 kmh 29.82 in1009.8 mb 0.00 in0.0 mm 0.00 in/hr0.0 mm/hr 0.00 in0.0 mm
07:25 AM 79.7°F26.5°C 69.9°F21.1°C 72% 0.7 mph W1.1 kmh W 2.2 mph3.5 kmh 29.81 in1009.5 mb 0.00 in0.0 mm 0.00 in/hr0.0 mm/hr 0.00 in0.0 mm
07:20 AM 79.2°F26.2°C 69.8°F21.0°C 73% 0.7 mph WSW1.1 kmh WSW 3.8 mph6.1 kmh 29.82 in1009.8 mb 0.00 in0.0 mm 0.00 in/hr0.0 mm/hr 0.00 in0.0 mm
07:15 AM 78.8°F26.0°C 69.9°F21.1°C 74% 0.7 mph WSW1.1 kmh WSW 3.8 mph6.1 kmh 29.81 in1009.5 mb 0.00 in0.0 mm 0.00 in/hr0.0 mm/hr 0.00 in0.0 mm
07:10 AM 78.6°F25.9°C 70.1°F21.2°C 75% Calm Calm 3.1 mph5.0 kmh 29.82 in1009.8 mb 0.00 in0.0 mm 0.00 in/hr0.0 mm/hr 0.00 in0.0 mm
07:05 AM 77.9°F25.5°C 70.5°F21.4°C 78% Calm Calm 2.2 mph3.5 kmh 29.82 in1009.8 mb 0.00 in0.0 mm 0.00 in/hr0.0 mm/hr 0.00 in0.0 mm
07:00 AM 77.9°F25.5°C 70.5°F21.4°C 78% Calm Calm 2.2 mph3.5 kmh 29.81 in1009.5 mb 0.00 in0.0 mm 0.00 in/hr0.0 mm/hr 0.00 in0.0 mm
06:55 AM 77.5°F25.3°C 70.2°F21.2°C 78% Calm Calm 2.2 mph3.5 kmh 29.81 in1009.5 mb 0.00 in0.0 mm 0.00 in/hr0.0 mm/hr 0.00 in0.0 mm
06:50 AM 77.4°F25.2°C 71.1°F21.7°C 81% Calm Calm 2.2 mph3.5 kmh 29.81 in1009.5 mb 0.00 in0.0 mm 0.00 in/hr0.0 mm/hr 0.00 in0.0 mm
06:45 AM 76.5°F24.7°C 71.0°F21.7°C 83% 1.6 mph W2.6 kmh W 2.2 mph3.5 kmh 29.81 in1009.5 mb 0.00 in0.0 mm 0.00 in/hr0.0 mm/hr 0.00 in0.0 mm
06:40 AM 75.9°F24.4°C 72.2°F22.3°C 88% Calm Calm 1.6 mph2.6 kmh 29.82 in1009.8 mb 0.00 in0.0 mm 0.00 in/hr0.0 mm/hr 0.00 in0.0 mm
06:35 AM 74.5°F23.6°C 71.4°F21.9°C 90% Calm Calm 2.2 mph3.5 kmh 29.81 in1009.5 mb 0.00 in0.0 mm 0.00 in/hr0.0 mm/hr 0.00 in0.0 mm
06:30 AM 72.9°F22.7°C 71.4°F21.9°C 95% Calm Calm 2.2 mph3.5 kmh 29.81 in1009.5 mb 0.00 in0.0 mm 0.00 in/hr0.0 mm/hr 0.00 in0.0 mm
06:25 AM 70.9°F21.6°C 70.3°F21.3°C 98% 0.7 mph WSW1.1 kmh WSW 2.2 mph3.5 kmh 29.81 in1009.5 mb 0.00 in0.0 mm 0.00 in/hr0.0 mm/hr 0.00 in0.0 mm
06:20 AM 68.5°F20.3°C 68.3°F20.2°C 99% 0.7 mph W1.1 kmh W 3.8 mph6.1 kmh 29.81 in1009.5 mb 0.00 in0.0 mm 0.00 in/hr0.0 mm/hr 0.00 in0.0 mm
06:15 AM 65.8°F18.8°C 65.6°F18.7°C 99% 0.7 mph W1.1 kmh W 3.8 mph6.1 kmh 29.81 in1009.5 mb 0.00 in0.0 mm 0.00 in/hr0.0 mm/hr 0.00 in0.0 mm
06:10 AM 62.6°F17.0°C 62.3°F16.8°C 99% Calm Calm 2.2 mph3.5 kmh 29.81 in1009.5 mb 0.00 in0.0 mm 0.00 in/hr0.0 mm/hr 0.00 in0.0 mm
06:05 AM 61.9°F16.6°C 61.6°F16.4°C 99% 0.7 mph W1.1 kmh W 2.2 mph3.5 kmh 29.81 in1009.5 mb 0.00 in0.0 mm 0.00 in/hr0.0 mm/hr 0.00 in0.0 mm
06:00 AM 61.5°F16.4°C 61.3°F16.3°C 99% Calm Calm 2.2 mph3.5 kmh 29.81 in1009.5 mb 0.00 in0.0 mm 0.00 in/hr0.0 mm/hr 0.00 in0.0 mm
05:55 AM 61.2°F16.2°C 60.9°F16.1°C 99% Calm Calm 2.2 mph3.5 kmh 29.81 in1009.5 mb 0.00 in0.0 mm 0.00 in/hr0.0 mm/hr 0.00 in0.0 mm
05:50 AM 61.0°F16.1°C 60.7°F15.9°C 99% Calm Calm 2.2 mph3.5 kmh 29.81 in1009.5 mb 0.00 in0.0 mm 0.00 in/hr0.0 mm/hr 0.00 in0.0 mm
05:45 AM 60.6°F15.9°C 60.4°F15.8°C 99% 0.7 mph WSW1.1 kmh WSW 2.2 mph3.5 kmh 29.81 in1009.5 mb 0.00 in0.0 mm 0.00 in/hr0.0 mm/hr 0.00 in0.0 mm
05:40 AM 60.3°F15.7°C 60.0°F15.6°C 99% Calm Calm 2.2 mph3.5 kmh 29.81 in1009.5 mb 0.00 in0.0 mm 0.00 in/hr0.0 mm/hr 0.00 in0.0 mm
05:35 AM 59.9°F15.5°C 59.6°F15.3°C 99% 0.7 mph WSW1.1 kmh WSW 2.2 mph3.5 kmh 29.81 in1009.5 mb 0.00 in0.0 mm 0.00 in/hr0.0 mm/hr 0.00 in0.0 mm
05:30 AM 59.7°F15.4°C 59.5°F15.3°C 99% Calm Calm 2.2 mph3.5 kmh 29.81 in1009.5 mb 0.00 in0.0 mm 0.00 in/hr0.0 mm/hr 0.00 in0.0 mm
05:25 AM 59.5°F15.3°C 59.3°F15.2°C 99% Calm Calm 1.6 mph2.6 kmh 29.81 in1009.5 mb 0.00 in0.0 mm 0.00 in/hr0.0 mm/hr 0.00 in0.0 mm
05:20 AM 59.4°F15.2°C 59.1°F15.1°C 99% Calm Calm 1.6 mph2.6 kmh 29.81 in1009.5 mb 0.00 in0.0 mm 0.00 in/hr0.0 mm/hr 0.00 in0.0 mm
05:15 AM 59.2°F15.1°C 58.9°F14.9°C 99% Calm Calm 1.6 mph2.6 kmh 29.81 in1009.5 mb 0.00 in0.0 mm 0.00 in/hr0.0 mm/hr 0.00 in0.0 mm
05:10 AM 59.0°F15.0°C 58.7°F14.8°C 99% Calm Calm 1.6 mph2.6 kmh 29.81 in1009.5 mb 0.00 in0.0 mm 0.00 in/hr0.0 mm/hr 0.00 in0.0 mm
05:05 AM 59.0°F15.0°C 58.7°F14.8°C 99% Calm Calm 0.7 mph1.1 kmh 29.81 in1009.5 mb 0.00 in0.0 mm 0.00 in/hr0.0 mm/hr 0.00 in0.0 mm
05:00 AM 59.0°F15.0°C 58.7°F14.8°C 99% Calm Calm 0.7 mph1.1 kmh 29.81 in1009.5 mb 0.00 in0.0 mm 0.00 in/hr0.0 mm/hr 0.00 in0.0 mm
04:55 AM 59.0°F15.0°C 58.7°F14.8°C 99% Calm Calm 1.6 mph2.6 kmh 29.81 in1009.5 mb 0.00 in0.0 mm 0.00 in/hr0.0 mm/hr 0.00 in0.0 mm
04:50 AM 59.0°F15.0°C 58.7°F14.8°C 99% Calm Calm 1.6 mph2.6 kmh 29.81 in1009.5 mb 0.00 in0.0 mm 0.00 in/hr0.0 mm/hr 0.00 in0.0 mm
04:45 AM 59.0°F15.0°C 58.7°F14.8°C 99% Calm Calm 1.6 mph2.6 kmh 29.80 in1009.1 mb 0.00 in0.0 mm 0.00 in/hr0.0 mm/hr 0.00 in0.0 mm
04:40 AM 59.2°F15.1°C 58.9°F14.9°C 99% Calm Calm 1.6 mph2.6 kmh 29.80 in1009.1 mb 0.00 in0.0 mm 0.00 in/hr0.0 mm/hr 0.00 in0.0 mm
04:35 AM 59.2°F15.1°C 58.9°F14.9°C 99% Calm Calm 1.6 mph2.6 kmh 29.81 in1009.5 mb 0.00 in0.0 mm 0.00 in/hr0.0 mm/hr 0.00 in0.0 mm
04:30 AM 59.4°F15.2°C 59.1°F15.1°C 99% Calm Calm 0.7 mph1.1 kmh 29.81 in1009.5 mb 0.00 in0.0 mm 0.00 in/hr0.0 mm/hr 0.00 in0.0 mm
04:25 AM 59.5°F15.3°C 59.3°F15.2°C 99% Calm Calm -- 29.81 in1009.5 mb 0.00 in0.0 mm 0.00 in/hr0.0 mm/hr 0.00 in0.0 mm
04:20 AM 59.4°F15.2°C 59.1°F15.1°C 99% Calm Calm -- 29.81 in1009.5 mb 0.00 in0.0 mm 0.00 in/hr0.0 mm/hr 0.00 in0.0 mm
04:15 AM 59.5°F15.3°C 59.3°F15.2°C 99% Calm Calm -- 29.81 in1009.5 mb 0.00 in0.0 mm 0.00 in/hr0.0 mm/hr 0.00 in0.0 mm
04:10 AM 59.5°F15.3°C 59.3°F15.2°C 99% Calm Calm 0.7 mph1.1 kmh 29.81 in1009.5 mb 0.00 in0.0 mm 0.00 in/hr0.0 mm/hr 0.00 in0.0 mm
04:05 AM 59.5°F15.3°C 59.3°F15.2°C 99% Calm Calm 1.6 mph2.6 kmh 29.80 in1009.1 mb 0.00 in0.0 mm 0.00 in/hr0.0 mm/hr 0.00 in0.0 mm
04:00 AM 59.5°F15.3°C 59.3°F15.2°C 99% Calm Calm 1.6 mph2.6 kmh 29.80 in1009.1 mb 0.00 in0.0 mm 0.00 in/hr0.0 mm/hr 0.00 in0.0 mm
03:55 AM 59.7°F15.4°C 59.5°F15.3°C 99% Calm Calm 1.6 mph2.6 kmh 29.80 in1009.1 mb 0.00 in0.0 mm 0.00 in/hr0.0 mm/hr 0.00 in0.0 mm
03:50 AM 59.7°F15.4°C 59.5°F15.3°C 99% Calm Calm 1.6 mph2.6 kmh 29.80 in1009.1 mb 0.00 in0.0 mm 0.00 in/hr0.0 mm/hr 0.00 in0.0 mm
03:45 AM 59.7°F15.4°C 59.5°F15.3°C 99% Calm Calm 1.6 mph2.6 kmh 29.80 in1009.1 mb 0.00 in0.0 mm 0.00 in/hr0.0 mm/hr 0.00 in0.0 mm
03:40 AM 59.9°F15.5°C 59.6°F15.3°C 99% Calm Calm 2.2 mph3.5 kmh 29.80 in1009.1 mb 0.00 in0.0 mm 0.00 in/hr0.0 mm/hr 0.00 in0.0 mm
03:35 AM 60.1°F15.6°C 59.8°F15.4°C 99% Calm Calm 2.2 mph3.5 kmh 29.80 in1009.1 mb 0.00 in0.0 mm 0.00 in/hr0.0 mm/hr 0.00 in0.0 mm
03:30 AM 60.1°F15.6°C 59.8°F15.4°C 99% Calm Calm 2.2 mph3.5 kmh 29.80 in1009.1 mb 0.00 in0.0 mm 0.00 in/hr0.0 mm/hr 0.00 in0.0 mm
03:25 AM 60.1°F15.6°C 59.8°F15.4°C 99% Calm Calm 2.2 mph3.5 kmh 29.80 in1009.1 mb 0.00 in0.0 mm 0.00 in/hr0.0 mm/hr 0.00 in0.0 mm
03:20 AM 60.3°F15.7°C 60.0°F15.6°C 99% Calm Calm 1.6 mph2.6 kmh 29.80 in1009.1 mb 0.00 in0.0 mm 0.00 in/hr0.0 mm/hr 0.00 in0.0 mm
03:15 AM 60.4°F15.8°C 60.2°F15.7°C 99% Calm Calm 2.2 mph3.5 kmh 29.80 in1009.1 mb 0.00 in0.0 mm 0.00 in/hr0.0 mm/hr 0.00 in0.0 mm
03:10 AM 60.4°F15.8°C 60.2°F15.7°C 99% Calm Calm 2.2 mph3.5 kmh 29.80 in1009.1 mb 0.00 in0.0 mm 0.00 in/hr0.0 mm/hr 0.00 in0.0 mm
03:05 AM 60.3°F15.7°C 60.0°F15.6°C 99% Calm Calm 0.7 mph1.1 kmh 29.80 in1009.1 mb 0.00 in0.0 mm 0.00 in/hr0.0 mm/hr 0.00 in0.0 mm
03:00 AM 60.3°F15.7°C 60.0°F15.6°C 99% Calm Calm 0.7 mph1.1 kmh 29.80 in1009.1 mb 0.00 in0.0 mm 0.00 in/hr0.0 mm/hr 0.00 in0.0 mm
02:55 AM 60.3°F15.7°C 60.0°F15.6°C 99% Calm Calm 0.7 mph1.1 kmh 29.80 in1009.1 mb 0.00 in0.0 mm 0.00 in/hr0.0 mm/hr 0.00 in0.0 mm
02:50 AM 60.3°F15.7°C 60.0°F15.6°C 99% Calm Calm 0.7 mph1.1 kmh 29.80 in1009.1 mb 0.00 in0.0 mm 0.00 in/hr0.0 mm/hr 0.00 in0.0 mm
02:45 AM 60.3°F15.7°C 60.0°F15.6°C 99% Calm Calm 0.7 mph1.1 kmh 29.80 in1009.1 mb 0.00 in0.0 mm 0.00 in/hr0.0 mm/hr 0.00 in0.0 mm
02:40 AM 60.3°F15.7°C 60.0°F15.6°C 99% Calm Calm 2.2 mph3.5 kmh 29.80 in1009.1 mb 0.00 in0.0 mm 0.00 in/hr0.0 mm/hr 0.00 in0.0 mm
02:35 AM 60.4°F15.8°C 60.2°F15.7°C 99% Calm Calm 2.2 mph3.5 kmh 29.80 in1009.1 mb 0.00 in0.0 mm 0.00 in/hr0.0 mm/hr 0.00 in0.0 mm
02:30 AM 60.4°F15.8°C 60.2°F15.7°C 99% 0.7 mph WSW1.1 kmh WSW 2.2 mph3.5 kmh 29.80 in1009.1 mb 0.00 in0.0 mm 0.00 in/hr0.0 mm/hr 0.00 in0.0 mm
02:25 AM 60.4°F15.8°C 60.2°F15.7°C 99% Calm Calm 0.7 mph1.1 kmh 29.80 in1009.1 mb 0.00 in0.0 mm 0.00 in/hr0.0 mm/hr 0.00 in0.0 mm
02:20 AM 60.6°F15.9°C 60.4°F15.8°C 99% Calm Calm 0.7 mph1.1 kmh 29.80 in1009.1 mb 0.00 in0.0 mm 0.00 in/hr0.0 mm/hr 0.00 in0.0 mm
02:15 AM 60.6°F15.9°C 60.4°F15.8°C 99% Calm Calm 1.6 mph2.6 kmh 29.80 in1009.1 mb 0.00 in0.0 mm 0.00 in/hr0.0 mm/hr 0.00 in0.0 mm
02:10 AM 60.8°F16.0°C 60.5°F15.8°C 99% Calm Calm 1.6 mph2.6 kmh 29.80 in1009.1 mb 0.00 in0.0 mm 0.00 in/hr0.0 mm/hr 0.00 in0.0 mm
02:05 AM 61.0°F16.1°C 60.7°F15.9°C 99% Calm Calm 2.2 mph3.5 kmh 29.80 in1009.1 mb 0.00 in0.0 mm 0.00 in/hr0.0 mm/hr 0.00 in0.0 mm
02:00 AM 61.0°F16.1°C 60.7°F15.9°C 99% Calm Calm 2.2 mph3.5 kmh 29.80 in1009.1 mb 0.00 in0.0 mm 0.00 in/hr0.0 mm/hr 0.00 in0.0 mm
01:55 AM 60.8°F16.0°C 60.5°F15.8°C 99% Calm Calm 2.2 mph3.5 kmh 29.81 in1009.5 mb 0.00 in0.0 mm 0.00 in/hr0.0 mm/hr 0.00 in0.0 mm
01:50 AM 60.8°F16.0°C 60.5°F15.8°C 99% Calm Calm 2.2 mph3.5 kmh 29.81 in1009.5 mb 0.00 in0.0 mm 0.00 in/hr0.0 mm/hr 0.00 in0.0 mm
01:45 AM 60.8°F16.0°C 60.5°F15.8°C 99% Calm Calm 1.6 mph2.6 kmh 29.81 in1009.5 mb 0.00 in0.0 mm 0.00 in/hr0.0 mm/hr 0.00 in0.0 mm
01:40 AM 60.8°F16.0°C 60.5°F15.8°C 99% 0.7 mph W1.1 kmh W 1.6 mph2.6 kmh 29.80 in1009.1 mb 0.00 in0.0 mm 0.00 in/hr0.0 mm/hr 0.00 in0.0 mm
01:35 AM 60.8°F16.0°C 60.5°F15.8°C 99% Calm Calm 1.6 mph2.6 kmh 29.80 in1009.1 mb 0.00 in0.0 mm 0.00 in/hr0.0 mm/hr 0.00 in0.0 mm
01:30 AM 61.0°F16.1°C 60.7°F15.9°C 99% Calm Calm 1.6 mph2.6 kmh 29.81 in1009.5 mb 0.00 in0.0 mm 0.00 in/hr0.0 mm/hr 0.00 in0.0 mm
01:25 AM 60.8°F16.0°C 60.5°F15.8°C 99% Calm Calm 1.6 mph2.6 kmh 29.81 in1009.5 mb 0.00 in0.0 mm 0.00 in/hr0.0 mm/hr 0.00 in0.0 mm
01:20 AM 60.8°F16.0°C 60.5°F15.8°C 99% Calm Calm 1.6 mph2.6 kmh 29.81 in1009.5 mb 0.00 in0.0 mm 0.00 in/hr0.0 mm/hr 0.00 in0.0 mm
01:15 AM 60.8°F16.0°C 60.5°F15.8°C 99% Calm Calm 1.6 mph2.6 kmh 29.81 in1009.5 mb 0.00 in0.0 mm 0.00 in/hr0.0 mm/hr 0.00 in0.0 mm
01:10 AM 60.8°F16.0°C 60.5°F15.8°C 99% Calm Calm 1.6 mph2.6 kmh 29.81 in1009.5 mb 0.00 in0.0 mm 0.00 in/hr0.0 mm/hr 0.00 in0.0 mm
01:05 AM 61.2°F16.2°C 60.9°F16.1°C 99% Calm Calm 2.2 mph3.5 kmh 29.81 in1009.5 mb 0.00 in0.0 mm 0.00 in/hr0.0 mm/hr 0.00 in0.0 mm
01:00 AM 61.2°F16.2°C 60.9°F16.1°C 99% Calm Calm 2.2 mph3.5 kmh 29.81 in1009.5 mb 0.00 in0.0 mm 0.00 in/hr0.0 mm/hr 0.00 in0.0 mm
12:55 AM 61.3°F16.3°C 60.8°F16.0°C 98% Calm Calm 1.6 mph2.6 kmh 29.81 in1009.5 mb 0.00 in0.0 mm 0.00 in/hr0.0 mm/hr 0.00 in0.0 mm
12:50 AM 61.5°F16.4°C 61.0°F16.1°C 98% Calm Calm 1.6 mph2.6 kmh 29.81 in1009.5 mb 0.00 in0.0 mm 0.00 in/hr0.0 mm/hr 0.00 in0.0 mm
12:45 AM 61.7°F16.5°C 60.9°F16.1°C 97% Calm Calm 1.6 mph2.6 kmh 29.81 in1009.5 mb 0.00 in0.0 mm 0.00 in/hr0.0 mm/hr 0.00 in0.0 mm
12:40 AM 61.7°F16.5°C 60.9°F16.1°C 97% Calm Calm 0.7 mph1.1 kmh 29.81 in1009.5 mb 0.00 in0.0 mm 0.00 in/hr0.0 mm/hr 0.00 in0.0 mm
12:35 AM 61.9°F16.6°C 61.0°F16.1°C 97% Calm Calm 1.6 mph2.6 kmh 29.81 in1009.5 mb 0.00 in0.0 mm 0.00 in/hr0.0 mm/hr 0.00 in0.0 mm
12:30 AM 62.2°F16.8°C 61.4°F16.3°C 97% Calm Calm 1.6 mph2.6 kmh 29.81 in1009.5 mb 0.00 in0.0 mm 0.00 in/hr0.0 mm/hr 0.00 in0.0 mm
12:25 AM 62.4°F16.9°C 61.3°F16.3°C 96% Calm Calm 1.6 mph2.6 kmh 29.81 in1009.5 mb 0.00 in0.0 mm 0.00 in/hr0.0 mm/hr 0.00 in0.0 mm
12:20 AM 62.4°F16.9°C 61.3°F16.3°C 96% Calm Calm 1.6 mph2.6 kmh 29.81 in1009.5 mb 0.00 in0.0 mm 0.00 in/hr0.0 mm/hr 0.00 in0.0 mm
12:15 AM 62.4°F16.9°C 61.3°F16.3°C 96% Calm Calm 1.6 mph2.6 kmh 29.81 in1009.5 mb 0.00 in0.0 mm 0.00 in/hr0.0 mm/hr 0.00 in0.0 mm
12:10 AM 62.4°F16.9°C 61.3°F16.3°C 96% Calm Calm 0.7 mph1.1 kmh 29.81 in1009.5 mb 0.00 in0.0 mm 0.00 in/hr0.0 mm/hr 0.00 in0.0 mm
12:05 AM 62.4°F16.9°C 60.7°F15.9°C 94% Calm Calm -- 29.82 in1009.8 mb 0.00 in0.0 mm 0.00 in/hr0.0 mm/hr 0.00 in0.0 mm
12:00 AM 62.4°F16.9°C 60.7°F15.9°C 94% Calm Calm 0.7 mph1.1 kmh 29.81 in1009.5 mb 0.00 in0.0 mm 0.00 in/hr0.0 mm/hr 0.00 in0.0 mm